Federal Dam, Minnesota
Current Conditions -  °F | °C
As of 9:55 AM on Sunday 21 Dec 2014 (Local Time) from KY49 Reporting Station
Haze Haze  
Wind Chill: 21°   Ceiling: 400
Heat Index: 29°   Visibility: 4mi
Dew Point: 28°   Wind: 8mph
Humidity: 95%   Direction: 170°S
Pressure: 29.76"   Gusts: 17mph
Location:  47.25°N, 94.21°W
Report Text: KY49 211555Z AUTO 17007G15KT 4SM BR OVC004 M02/M02 A2976 RMK AO2 T10161023
Loading
Personal Weather Stations






























Interactive Weather Map New forecast layout! Learn more

10-Day Weather Forecast

Advertisements
Track Severe Weather on mobile